Terminal Aerodrome Forecast
Issued by NWS

Home | Current Version | Previous Version | Text Only | Print | Product List | Glossary On
Versions: 1 2 3 4 5 6 7 8 9 10 11 12 13
000
FTUS45 KGGW 052300
TAFSDY
TAF
KSDY 052320Z 0600/0624 14012KT P6SM SCT080
     FM060900 16007KT P6SM VCSH SCT090
     FM061200 VRB03KT P6SM VCSH OVC045
     FM061800 31009KT 5SM -SHRA OVC015
      AMD LTD TO CLD VIS AND WIND=

USA.gov is the U.S. government's official web portal to all federal, state and local government web resources and services.